CheckWX is a tool to help pilots better visualize weather data.  It is not intended as a substitute for an official pre-flight weather briefing.

17:39:29 UTC

FALE TAF
King Shaka International Airport
Durban, South Africa
TAF FALE 181000Z 1812/1918 20010KT CAVOK TX24/1812Z TN10/1904Z FM181400 20010KT 9999 SCT020 BECMG 1818/1820 VRB03KT BKN020 BECMG 1900/1902 32005KT FM190800 04010KT CAVOK

Jun-18@
12:00 UTC

Jun-18 @ 12:00 UTC

Jun-18@
14:00 UTC

Jun-18 @ 14:00 UTC

TAF FALE 181000Z 1812/1918 20010KT CAVOK TX24/1812Z TN10/1904Z

Expired

Wind
  • 200° at 10 KTS
Cloud Levels
  • No significant clouds

Jun-18@
14:00 UTC

Jun-18 @ 14:00 UTC

Jun-18@
18:00 UTC

Jun-18 @ 18:00 UTC

FM181400 20010KT 9999 SCT020

From

From Standard forecast or significant change

Wind
  • 200° at 10 KTS
Cloud Levels
  • Scattered at 2,000' AGL

Jun-18@
18:00 UTC

Jun-18 @ 18:00 UTC

Jun-19@
00:00 UTC

Jun-19 @ 00:00 UTC

BECMG 1818/1820 VRB03KT BKN020

Becoming

Becoming Conditions expected by Tue, Jun 18, 2019 @ 20:00 UTC

Wind
  • Variable at 3 KTS
Cloud Levels
  • Broken at 2,000' AGL

Jun-19@
00:00 UTC

Jun-19 @ 00:00 UTC

Jun-19@
08:00 UTC

Jun-19 @ 08:00 UTC

BECMG 1900/1902 32005KT

Becoming

Becoming Conditions expected by Wed, Jun 19, 2019 @ 02:00 UTC

Wind
  • 320° at 5 KTS
Cloud Levels
  • Broken at 2,000' AGL

Jun-19@
08:00 UTC

Jun-19 @ 08:00 UTC

Jun-19@
18:00 UTC

Jun-19 @ 18:00 UTC

FM190800 04010KT CAVOK

From

From Standard forecast or significant change

Wind
  • 040° at 10 KTS
Conditions
No significant weather
Cloud Levels
  • No significant clouds